Time;durP1;ratioP1;P1;durP2;ratioP2;P2;SDS_P1;SDS_P2;PMS_P1;PMS_P2;Temp;Humidity;BMP_temperature;BMP_pressure;BME280_temperature;BME280_humidity;BME280_pressure;Samples;Min_cycle;Max_cycle;Signal;HPM_P1;HPM_P2
2021/07/13 05:00:56;;;;;;;7.60;6.03;;;;;;;25.12;62.25;94728.97;5867101;23;20054;-77
2021/07/13 05:03:22;;;;;;;7.00;6.40;;;;;;;25.68;60.21;94730.53;4986726;28;20507;-77
2021/07/13 05:05:47;;;;;;;8.25;5.78;;;;;;;25.41;59.50;94722.06;4988608;28;20022;-79
2021/07/13 05:08:13;;;;;;;6.97;6.15;;;;;;;26.19;58.55;94714.41;4979027;28;20027;-78
2021/07/13 05:10:38;;;;;;;6.15;5.65;;;;;;;26.49;56.43;94722.19;4976931;28;20039;-78
2021/07/13 05:13:09;;;;;;;6.18;5.75;;;;;;;27.71;53.75;94722.00;4982371;28;20034;-77
2021/07/13 05:15:34;;;;;;;6.07;5.43;;;;;;;28.63;50.36;94717.94;4969280;28;20042;-79
2021/07/13 05:18:00;;;;;;;6.32;5.90;;;;;;;30.36;47.87;94731.75;4966452;28;20035;-79
2021/07/13 05:20:25;;;;;;;9.10;5.65;;;;;;;30.85;45.19;94726.41;4968681;28;20038;-76
2021/07/13 05:22:58;;;;;;;6.15;5.65;;;;;;;29.62;48.35;94728.38;4975876;28;20073;-79
2021/07/13 05:25:23;;;;;;;6.38;5.78;;;;;;;31.30;43.90;94727.22;4987117;28;20029;-78
2021/07/13 05:27:49;;;;;;;6.70;6.00;;;;;;;30.72;45.11;94728.03;4987793;28;20031;-78
2021/07/13 05:30:16;;;;;;;5.95;5.57;;;;;;;32.25;41.60;94725.75;4986479;28;20034;-77
2021/07/13 05:32:42;;;;;;;6.18;5.68;;;;;;;32.06;43.54;94731.41;4987549;28;20034;-80
2021/07/13 05:35:08;;;;;;;6.38;5.80;;;;;;;31.77;43.53;94739.94;4986332;28;20033;-77
2021/07/13 05:37:33;;;;;;;5.95;5.35;;;;;;;31.81;44.02;94737.44;4979826;28;20500;-80
2021/07/13 05:39:59;;;;;;;7.18;5.45;;;;;;;32.75;41.53;94729.63;4970846;28;20035;-81
2021/07/13 05:42:25;;;;;;;6.10;5.50;;;;;;;33.35;39.93;94724.25;4987426;28;20022;-77
2021/07/13 05:44:50;;;;;;;6.55;5.47;;;;;;;31.21;43.74;94726.38;4987961;28;20467;-77
2021/07/13 05:47:16;;;;;;;6.72;6.13;;;;;;;28.21;48.05;94726.78;4986691;28;20398;-77
2021/07/13 05:49:42;;;;;;;6.30;5.50;;;;;;;32.16;43.22;94724.97;4987797;28;20067;-81
2021/07/13 05:52:07;;;;;;;5.78;5.10;;;;;;;32.15;41.82;94726.06;4986637;28;20034;-80
2021/07/13 05:54:33;;;;;;;6.20;5.40;;;;;;;31.93;41.20;94723.44;4986952;28;20084;-76
2021/07/13 05:57:00;;;;;;;5.45;4.97;;;;;;;33.27;39.85;94719.69;4987120;28;20113;-79
2021/07/13 05:59:26;;;;;;;5.95;5.47;;;;;;;32.73;40.91;94721.13;4986345;28;20380;-79
2021/07/13 06:01:52;;;;;;;5.90;5.22;;;;;;;33.76;38.81;94717.53;4987346;28;20118;-78
2021/07/13 06:04:17;;;;;;;7.90;4.97;;;;;;;33.72;39.23;94717.38;4985264;28;20037;-78
2021/07/13 06:06:43;;;;;;;6.55;5.38;;;;;;;31.30;41.95;94719.19;4987882;28;20092;-77
2021/07/13 06:09:08;;;;;;;6.82;4.90;;;;;;;32.95;39.82;94724.75;4984750;28;20018;-80
2021/07/13 06:11:34;;;;;;;5.10;4.80;;;;;;;34.67;37.73;94727.69;4987784;28;20030;-81
2021/07/13 06:13:59;;;;;;;10.35;5.35;;;;;;;31.82;41.82;94720.25;4972552;28;20045;-79
2021/07/13 06:16:24;;;;;;;5.82;4.90;;;;;;;33.65;39.50;94719.78;4971642;28;20472;-80
2021/07/13 06:18:50;;;;;;;5.88;5.38;;;;;;;33.87;38.63;94719.56;4989634;28;20037;-81
2021/07/13 06:21:16;;;;;;;5.32;4.60;;;;;;;35.07;37.19;94717.22;4990324;28;20077;-80
2021/07/13 06:23:41;;;;;;;5.32;4.90;;;;;;;35.39;35.68;94722.66;4991373;28;20037;-78
2021/07/13 06:26:06;;;;;;;6.00;5.18;;;;;;;32.75;40.24;94708.16;4989771;28;20026;-81
2021/07/13 06:28:32;;;;;;;6.25;5.07;;;;;;;33.97;37.98;94721.09;4991445;28;20027;-80
2021/07/13 06:30:57;;;;;;;5.45;5.05;;;;;;;34.13;38.12;94718.66;4989701;28;20030;-80
2021/07/13 06:33:23;;;;;;;5.10;4.63;;;;;;;34.92;36.80;94715.94;4991493;28;20031;-79
2021/07/13 06:35:48;;;;;;;5.00;4.70;;;;;;;34.62;37.05;94723.28;4989596;28;20583;-78
2021/07/13 06:38:14;;;;;;;8.68;5.68;;;;;;;35.22;36.29;94720.13;4988594;28;20054;-79
2021/07/13 06:40:40;;;;;;;6.07;5.57;;;;;;;35.77;35.54;94714.31;4988903;28;20015;-78
2021/07/13 06:43:05;;;;;;;8.73;5.55;;;;;;;34.75;36.85;94711.47;4988019;28;20622;-79
2021/07/13 06:45:31;;;;;;;8.35;5.65;;;;;;;31.52;44.51;94716.50;4973104;28;20085;-80
2021/07/13 06:47:56;;;;;;;5.50;4.93;;;;;;;30.46;44.96;94716.31;4984938;28;20042;-79
2021/07/13 06:50:23;;;;;;;6.18;5.68;;;;;;;31.38;43.99;94726.47;4987247;28;20023;-80
2021/07/13 06:52:49;;;;;;;8.48;5.57;;;;;;;31.09;44.12;94720.75;4970756;28;20064;-80
2021/07/13 06:55:14;;;;;;;6.28;5.47;;;;;;;30.61;44.76;94715.16;4991229;28;20085;-79
2021/07/13 06:57:40;;;;;;;6.80;5.57;;;;;;;30.57;45.07;94712.28;4988484;28;20027;-78
2021/07/13 07:00:07;;;;;;;5.45;5.03;;;;;;;36.04;37.14;94712.09;4986574;28;20411;-78
2021/07/13 07:02:32;;;;;;;6.20;5.57;;;;;;;35.05;36.49;94706.00;4972495;28;20057;-80
2021/07/13 07:04:58;;;;;;;6.93;4.97;;;;;;;33.15;40.81;94692.69;4976251;28;20026;-80
2021/07/13 07:07:23;;;;;;;5.88;5.45;;;;;;;30.11;45.57;94703.66;4986667;28;20034;-79
2021/07/13 07:09:49;;;;;;;5.88;5.38;;;;;;;29.64;46.34;94696.81;4985232;28;20435;-81
2021/07/13 07:12:14;;;;;;;8.52;5.60;;;;;;;30.83;45.59;94699.94;4987218;28;20408;-79
2021/07/13 07:14:39;;;;;;;5.97;5.43;;;;;;;28.07;51.02;94695.78;4988413;28;20030;-78
2021/07/13 07:17:05;;;;;;;6.45;5.25;;;;;;;30.39;46.45;94699.84;4988664;28;20031;-80
2021/07/13 07:19:30;;;;;;;8.00;5.85;;;;;;;30.49;45.82;94694.31;4973181;28;20041;-77
2021/07/13 07:21:56;;;;;;;13.15;5.97;;;;;;;31.18;46.81;94694.81;4989150;28;20022;-78
2021/07/13 07:24:21;;;;;;;7.70;5.68;;;;;;;31.23;44.77;94686.69;4991148;28;20030;-79
2021/07/13 07:26:47;;;;;;;7.38;5.15;;;;;;;31.73;44.36;94696.09;4986639;28;20727;-81
2021/07/13 07:29:12;;;;;;;8.93;5.68;;;;;;;30.61;45.86;94688.41;4973334;28;20030;-80
2021/07/13 07:31:38;;;;;;;5.80;5.30;;;;;;;30.98;46.14;94690.00;4971259;28;20031;-80
2021/07/13 07:34:03;;;;;;;6.25;5.65;;;;;;;29.92;49.17;94692.31;4989740;28;20488;-78
2021/07/13 07:36:28;;;;;;;7.05;5.60;;;;;;;30.42;48.13;94690.44;4986057;28;20034;-81
2021/07/13 07:38:55;;;;;;;7.82;5.75;;;;;;;30.58;47.77;94697.84;4989348;28;20419;-79
2021/07/13 07:41:21;;;;;;;5.63;5.10;;;;;;;30.75;47.85;94689.97;4989612;28;20507;-79
2021/07/13 07:43:47;;;;;;;9.73;5.45;;;;;;;29.71;49.70;94687.31;4972005;28;20113;-79
2021/07/13 07:46:13;;;;;;;5.90;5.40;;;;;;;31.05;47.20;94688.44;4988377;28;20023;-80
2021/07/13 07:48:39;;;;;;;6.07;5.47;;;;;;;30.44;48.01;94686.38;4985102;28;20538;-81
2021/07/13 07:51:04;;;;;;;6.38;5.88;;;;;;;30.70;46.29;94687.38;4975063;28;20034;-81
2021/07/13 07:53:30;;;;;;;5.93;5.40;;;;;;;29.25;48.06;94686.59;4989696;28;20424;-78
2021/07/13 07:55:55;;;;;;;6.80;6.20;;;;;;;30.63;48.12;94679.00;4991843;28;20030;-81
2021/07/13 07:58:21;;;;;;;6.05;5.05;;;;;;;30.49;45.49;94683.59;4972850;28;20113;-80
2021/07/13 08:00:47;;;;;;;5.50;5.10;;;;;;;30.30;47.64;94685.59;4985905;28;20046;-79
2021/07/13 08:03:12;;;;;;;6.03;5.53;;;;;;;30.80;48.73;94684.47;4989638;28;20045;-81
2021/07/13 08:05:40;;;;;;;8.18;5.47;;;;;;;29.93;46.23;94680.50;4970603;28;20049;-77
2021/07/13 08:08:08;;;;;;;9.27;5.30;;;;;;;30.88;45.70;94688.31;4987218;28;20026;-79
2021/07/13 08:10:33;;;;;;;5.65;5.25;;;;;;;30.01;46.56;94677.16;4988016;28;20043;-79
2021/07/13 08:13:00;;;;;;;6.57;5.30;;;;;;;31.28;44.34;94673.16;4987912;28;20463;-78
2021/07/13 08:15:26;;;;;;;5.22;4.75;;;;;;;32.20;43.67;94677.66;4986958;28;20022;-82
2021/07/13 08:17:52;;;;;;;6.57;5.80;;;;;;;30.69;45.54;94675.13;4965568;28;20466;-77
2021/07/13 08:20:18;;;;;;;6.25;5.78;;;;;;;29.22;46.28;94677.25;4968695;28;20027;-76
2021/07/13 08:22:46;;;;;;;8.98;5.82;;;;;;;29.21;47.59;94664.22;4968606;28;20054;-77
2021/07/13 08:25:12;;;;;;;6.15;5.55;;;;;;;30.09;47.27;94661.19;4978074;28;20177;-78
2021/07/13 08:27:37;;;;;;;7.05;6.00;;;;;;;29.68;46.09;94660.41;4986514;28;20058;-77
2021/07/13 08:30:04;;;;;;;6.95;4.95;;;;;;;31.33;45.46;94654.28;4988090;28;20030;-79
2021/07/13 08:32:30;;;;;;;5.55;5.05;;;;;;;31.34;45.50;94653.97;4987166;28;20030;-80
2021/07/13 08:34:55;;;;;;;7.15;5.70;;;;;;;30.57;44.34;94664.16;4988525;28;20030;-80
2021/07/13 08:37:21;;;;;;;5.45;5.05;;;;;;;30.05;44.38;94656.75;4986870;28;20027;-79
2021/07/13 08:39:47;;;;;;;6.30;5.65;;;;;;;30.20;45.80;94659.88;4987729;28;20022;-80
2021/07/13 08:42:14;;;;;;;6.00;5.50;;;;;;;29.64;47.29;94656.75;4984618;28;20674;-77
2021/07/13 08:44:40;;;;;;;6.40;5.80;;;;;;;30.80;43.36;94654.25;4985508;28;20034;-76
2021/07/13 08:47:05;;;;;;;5.95;5.32;;;;;;;29.92;45.31;94655.69;4988042;28;20431;-80
2021/07/13 08:49:30;;;;;;;5.80;5.40;;;;;;;31.61;44.43;94657.56;4987430;28;20031;-79
2021/07/13 08:51:56;;;;;;;5.97;5.38;;;;;;;31.45;44.08;94659.06;4987118;28;20041;-77
2021/07/13 08:54:21;;;;;;;7.25;5.85;;;;;;;32.13;44.23;94658.53;4987064;28;20018;-78
2021/07/13 08:56:47;;;;;;;5.00;4.63;;;;;;;30.82;44.54;94636.78;4967212;28;20027;-79
2021/07/13 08:59:12;;;;;;;5.63;5.10;;;;;;;31.27;44.31;94650.94;4982263;28;20041;-80
2021/07/13 09:01:38;;;;;;;6.55;5.10;;;;;;;31.57;42.78;94651.25;4985715;28;20409;-77
2021/07/13 09:04:05;;;;;;;6.00;5.43;;;;;;;31.07;42.67;94659.50;4987219;28;20858;-78
2021/07/13 09:06:49;;;;;;;6.07;5.47;;;;;;;30.53;44.73;94654.38;4985199;28;20145;-78
2021/07/13 09:09:40;;;;;;;6.55;5.43;;;;;;;30.73;43.04;94649.31;4986577;28;20034;-81
2021/07/13 09:12:18;;;;;;;7.57;5.65;;;;;;;30.78;41.60;94653.78;4984722;28;20038;-78
2021/07/13 09:14:53;;;;;;;7.13;5.72;;;;;;;30.56;44.89;94654.56;4985159;28;20032;-77
2021/07/13 09:17:37;;;;;;;10.23;6.47;;;;;;;31.27;43.39;94647.50;4986278;28;20034;-76
2021/07/13 09:20:21;;;;;;;5.95;5.35;;;;;;;31.71;43.62;94647.38;4985189;28;20038;-78
2021/07/13 09:22:58;;;;;;;8.45;5.90;;;;;;;32.31;43.63;94644.03;4986486;28;20028;-78
2021/07/13 09:25:23;;;;;;;7.50;5.72;;;;;;;32.17;40.86;94640.72;4976480;28;20030;-79
2021/07/13 09:28:08;;;;;;;5.63;5.18;;;;;;;32.16;40.80;94645.31;4966755;28;20037;-79
2021/07/13 09:30:33;;;;;;;5.20;4.85;;;;;;;32.46;41.03;94648.16;4966175;28;20062;-78
2021/07/13 09:33:21;;;;;;;6.65;5.43;;;;;;;32.20;39.97;94642.78;4979957;28;20058;-78
2021/07/13 09:36:12;;;;;;;5.68;5.18;;;;;;;32.68;41.77;94648.81;4980639;28;20042;-79
2021/07/13 09:38:40;;;;;;;6.35;5.82;;;;;;;31.23;38.55;94643.84;4981710;28;20030;-76
2021/07/13 09:41:16;;;;;;;5.75;5.22;;;;;;;31.71;40.65;94654.63;4982806;28;20035;-80
2021/07/13 09:43:49;;;;;;;6.03;5.57;;;;;;;32.26;38.42;94647.69;4980619;28;20018;-80
2021/07/13 09:46:30;;;;;;;6.35;5.85;;;;;;;32.69;39.30;94650.38;4964684;28;20034;-79
2021/07/13 09:49:15;;;;;;;5.95;5.35;;;;;;;32.66;38.83;94648.34;4982180;28;20057;-77
2021/07/13 09:51:50;;;;;;;6.82;5.32;;;;;;;33.06;38.16;94645.44;4985512;28;20041;-78
2021/07/13 09:54:38;;;;;;;6.00;5.45;;;;;;;32.32;37.38;94643.75;4984389;28;22272;-78
2021/07/13 09:57:24;;;;;;;5.70;5.30;;;;;;;32.32;37.09;94646.44;4984862;28;20514;-76
2021/07/13 09:59:55;;;;;;;6.15;5.50;;;;;;;32.30;37.02;94635.19;4984467;28;20042;-77
2021/07/13 10:02:23;;;;;;;6.22;5.72;;;;;;;31.83;38.96;94641.41;4985225;28;20096;-77
2021/07/13 10:04:50;;;;;;;6.63;4.87;;;;;;;32.24;38.42;94635.66;4984897;28;20042;-76
2021/07/13 10:07:16;;;;;;;6.55;5.82;;;;;;;31.91;39.93;94634.50;4984493;28;20483;-79
2021/07/13 10:09:52;;;;;;;7.10;5.85;;;;;;;32.05;39.00;94633.28;4985527;28;20404;-76
2021/07/13 10:12:19;;;;;;;9.77;5.63;;;;;;;31.68;38.07;94629.25;4987760;28;20070;-77
2021/07/13 10:14:47;;;;;;;5.75;5.35;;;;;;;32.32;37.25;94627.66;4988669;28;20026;-79
2021/07/13 10:17:13;;;;;;;5.53;4.97;;;;;;;31.93;36.49;94630.41;4989708;28;20072;-78
2021/07/13 10:19:49;;;;;;;6.03;5.43;;;;;;;31.50;37.17;94624.16;4988848;28;20057;-79
2021/07/13 10:22:15;;;;;;;5.88;5.38;;;;;;;31.92;37.35;94623.44;4988141;28;20066;-77
2021/07/13 10:24:42;;;;;;;6.15;5.55;;;;;;;31.88;36.52;94627.09;4986866;28;20026;-79
2021/07/13 10:27:13;;;;;;;6.15;5.68;;;;;;;31.08;36.35;94631.63;4966878;28;20030;-76
2021/07/13 10:29:39;;;;;;;6.03;5.43;;;;;;;31.33;35.35;94625.63;4986253;28;20036;-76
2021/07/13 10:32:07;;;;;;;6.03;5.45;;;;;;;31.68;34.69;94628.44;4987429;28;20105;-77
2021/07/13 10:34:55;;;;;;;7.93;4.97;;;;;;;31.20;35.17;94617.69;4987428;28;20542;-74
2021/07/13 10:37:30;;;;;;;18.00;6.07;;;;;;;31.93;36.79;94616.22;4985767;28;20034;-77
2021/07/13 10:40:15;;;;;;;5.75;5.13;;;;;;;32.12;35.22;94606.81;4988781;28;20492;-77
2021/07/13 10:42:41;;;;;;;6.90;5.05;;;;;;;31.70;35.19;94610.97;4987846;28;20033;-79
2021/07/13 10:45:22;;;;;;;6.00;5.38;;;;;;;31.86;33.92;94605.94;4989161;28;20407;-77
2021/07/13 10:47:56;;;;;;;5.75;5.35;;;;;;;32.17;37.25;94613.91;4971304;28;20558;-79
2021/07/13 10:50:21;;;;;;;5.50;5.00;;;;;;;32.41;34.59;94603.50;4969689;28;20113;-79
2021/07/13 10:52:51;;;;;;;4.55;4.15;;;;;;;32.67;35.45;94606.19;4969733;28;20067;-78
2021/07/13 10:55:31;;;;;;;5.68;5.18;;;;;;;32.27;35.08;94600.97;4988230;28;20077;-77
2021/07/13 10:58:09;;;;;;;5.15;4.85;;;;;;;32.32;34.81;94594.66;4972518;28;20042;-76
2021/07/13 11:00:50;;;;;;;5.25;4.85;;;;;;;32.10;34.68;94587.56;4968604;28;20518;-77
2021/07/13 11:03:31;;;;;;;6.30;5.65;;;;;;;32.87;33.21;94594.78;4972786;28;20026;-76
2021/07/13 11:06:00;;;;;;;5.80;5.35;;;;;;;32.74;35.53;94596.56;4989100;28;20491;-79
2021/07/13 11:11:14;;;;;;;5.70;5.30;;;;;;;31.98;35.16;94589.25;4988391;28;20125;-79
2021/07/13 11:13:41;;;;;;;5.30;4.75;;;;;;;32.47;34.48;94585.34;4989004;28;20109;-79
2021/07/13 11:16:06;;;;;;;5.13;4.72;;;;;;;32.62;35.42;94576.84;4986927;28;20070;-79
2021/07/13 11:18:33;;;;;;;5.57;5.07;;;;;;;32.90;34.80;94580.72;4988869;28;20116;-78
2021/07/13 11:21:36;;;;;;;5.28;4.85;;;;;;;32.44;33.83;94575.25;4987163;28;20041;-78
2021/07/13 11:24:06;;;;;;;5.40;5.00;;;;;;;32.20;34.08;94578.44;4985810;28;20023;-76
2021/07/13 11:26:37;;;;;;;6.97;5.13;;;;;;;32.24;32.70;94571.31;4969238;28;20113;-79
2021/07/13 11:29:04;;;;;;;5.47;5.03;;;;;;;32.61;34.71;94575.25;4952362;28;20061;-77
2021/07/13 11:31:31;;;;;;;5.85;5.45;;;;;;;32.74;34.81;94563.56;4967460;28;20035;-76
2021/07/13 11:34:05;;;;;;;5.53;5.22;;;;;;;32.14;33.20;94558.25;4967908;28;20042;-78
2021/07/13 11:36:35;;;;;;;5.53;5.03;;;;;;;32.91;35.22;94560.03;4967559;28;20134;-79
2021/07/13 11:39:02;;;;;;;5.50;5.03;;;;;;;32.42;32.96;94556.78;4977966;28;20030;-78
2021/07/13 11:41:28;;;;;;;5.90;5.50;;;;;;;33.10;35.06;94555.91;4986108;28;20045;-79
2021/07/13 11:43:55;;;;;;;5.72;5.32;;;;;;;32.70;35.48;94555.34;4988448;28;20018;-79
2021/07/13 11:46:22;;;;;;;5.30;4.80;;;;;;;32.82;34.41;94560.06;4987388;28;20042;-76
2021/07/13 11:49:00;;;;;;;6.18;5.10;;;;;;;33.09;33.00;94553.53;4988260;28;20031;-78
2021/07/13 11:51:36;;;;;;;5.40;5.00;;;;;;;33.53;33.42;94552.22;4988472;28;20034;-78
2021/07/13 11:54:04;;;;;;;5.35;4.68;;;;;;;32.97;32.96;94545.34;4987625;28;20080;-78
2021/07/13 11:56:30;;;;;;;11.13;5.53;;;;;;;33.72;34.82;94548.00;4968762;28;20035;-79
2021/07/13 11:58:55;;;;;;;6.30;5.70;;;;;;;33.22;33.41;94550.63;4968264;28;20089;-78
2021/07/13 12:01:24;;;;;;;5.40;4.97;;;;;;;33.55;34.10;94541.94;4966911;28;20453;-77
2021/07/13 12:03:51;;;;;;;5.80;5.38;;;;;;;33.10;32.06;94545.16;4966589;28;20039;-78
2021/07/13 12:06:17;;;;;;;5.57;5.18;;;;;;;33.57;33.96;94548.56;4967389;28;20046;-80
2021/07/13 12:08:43;;;;;;;8.13;4.90;;;;;;;33.76;32.82;94538.19;4967310;28;20027;-78
2021/07/13 12:11:09;;;;;;;4.90;4.53;;;;;;;33.43;31.01;94545.31;4966765;28;20039;-78
2021/07/13 12:13:37;;;;;;;8.43;5.20;;;;;;;33.20;30.84;94538.66;4969537;28;20565;-81
2021/07/13 12:16:16;;;;;;;6.15;5.00;;;;;;;33.08;31.02;94539.28;4950857;28;20038;-80
2021/07/13 12:18:42;;;;;;;6.95;5.13;;;;;;;32.52;30.33;94539.59;4951030;28;20859;-79
2021/07/13 12:21:08;;;;;;;7.20;5.07;;;;;;;33.03;30.28;94533.31;4971680;28;20038;-76
2021/07/13 12:23:33;;;;;;;5.43;5.03;;;;;;;33.02;31.28;94532.50;4986375;28;20037;-76
2021/07/13 12:26:47;;;;;;;5.18;4.68;;;;;;;32.15;31.03;94530.31;4987425;28;20026;-76
2021/07/13 12:29:19;;;;;;;5.10;4.70;;;;;;;32.92;31.07;94538.22;4977110;28;20530;-79
2021/07/13 12:31:44;;;;;;;5.80;5.25;;;;;;;32.70;31.19;94530.41;4981841;28;20038;-79
2021/07/13 12:34:24;;;;;;;5.28;4.88;;;;;;;32.53;30.85;94525.84;4985812;28;20034;-77
2021/07/13 12:37:20;;;;;;;5.22;4.80;;;;;;;33.34;31.31;94525.75;4966483;28;20037;-79
2021/07/13 12:39:50;;;;;;;6.10;4.75;;;;;;;33.57;30.38;94523.59;4983456;28;20037;-79
2021/07/13 12:42:23;;;;;;;4.80;4.45;;;;;;;33.55;30.78;94528.50;4980926;28;20022;-79
2021/07/13 12:44:58;;;;;;;6.18;5.68;;;;;;;32.69;30.57;94513.50;4967315;28;20069;-76
2021/07/13 12:47:31;;;;;;;5.75;4.70;;;;;;;33.38;30.74;94524.00;4982924;28;20431;-77
2021/07/13 12:50:04;;;;;;;5.30;4.78;;;;;;;33.67;31.66;94515.16;4985024;28;20057;-77
2021/07/13 12:52:34;;;;;;;5.53;5.13;;;;;;;33.29;31.42;94515.22;4982084;28;20100;-75
2021/07/13 12:55:11;;;;;;;5.65;5.15;;;;;;;33.06;31.27;94520.03;4984732;28;20035;-79
2021/07/13 12:57:38;;;;;;;5.82;5.30;;;;;;;33.48;32.88;94518.28;4985269;28;20105;-77
2021/07/13 13:00:11;;;;;;;5.75;5.35;;;;;;;32.48;33.56;94515.28;4986398;28;20093;-78
2021/07/13 13:02:36;;;;;;;5.30;5.00;;;;;;;32.25;32.89;94516.56;4986185;28;20078;-79
2021/07/13 13:05:04;;;;;;;6.13;5.63;;;;;;;32.26;33.51;94520.84;4982013;28;20391;-79
2021/07/13 13:07:29;;;;;;;5.53;5.13;;;;;;;32.85;34.22;94514.56;4983553;28;20030;-79
2021/07/13 13:09:55;;;;;;;6.63;5.90;;;;;;;32.78;33.45;94516.94;4965600;28;20025;-76
2021/07/13 13:12:20;;;;;;;5.90;5.50;;;;;;;33.15;34.61;94514.63;4979664;28;20038;-81
2021/07/13 13:14:46;;;;;;;6.57;6.18;;;;;;;32.10;36.51;94517.06;4983848;28;20081;-78
2021/07/13 13:17:16;;;;;;;6.60;6.20;;;;;;;31.85;38.88;94514.03;4980906;28;20022;-79
2021/07/13 13:19:42;;;;;;;7.00;6.32;;;;;;;32.32;37.15;94508.84;4980726;28;20022;-81
2021/07/13 13:22:08;;;;;;;7.25;6.75;;;;;;;32.89;36.19;94506.66;4964341;28;20037;-80
2021/07/13 13:24:34;;;;;;;6.57;6.10;;;;;;;32.78;36.79;94513.50;4978673;28;20559;-77
2021/07/13 13:27:00;;;;;;;6.78;6.18;;;;;;;32.26;35.41;94512.78;4981315;28;20088;-78
2021/07/13 13:29:25;;;;;;;7.53;6.57;;;;;;;31.93;37.34;94514.34;4983154;28;20581;-78
2021/07/13 13:31:50;;;;;;;7.53;6.75;;;;;;;31.79;37.51;94517.16;4971386;28;20459;-79
2021/07/13 13:34:17;;;;;;;6.40;5.90;;;;;;;31.68;38.07;94515.91;4986116;28;20480;-80
2021/07/13 13:36:43;;;;;;;6.90;6.13;;;;;;;31.50;37.71;94508.97;4985918;28;20114;-81
2021/07/13 13:39:15;;;;;;;7.07;6.57;;;;;;;31.40;38.75;94515.38;4968245;28;20053;-79
2021/07/13 13:41:47;;;;;;;7.07;6.43;;;;;;;31.10;39.43;94517.00;4983733;28;20080;-77
2021/07/13 13:44:13;;;;;;;7.20;6.57;;;;;;;31.31;39.81;94506.50;4984974;28;20102;-80
2021/07/13 13:46:40;;;;;;;7.03;6.47;;;;;;;31.78;38.99;94510.25;4985271;28;20038;-76
2021/07/13 13:49:05;;;;;;;7.35;6.85;;;;;;;32.03;38.99;94512.16;4984049;28;20023;-81
2021/07/13 13:51:31;;;;;;;7.45;6.85;;;;;;;32.22;37.37;94506.47;4984572;28;20381;-79
2021/07/13 13:53:57;;;;;;;8.30;5.88;;;;;;;32.31;39.92;94507.25;4968020;28;20057;-79
2021/07/13 13:56:25;;;;;;;7.45;6.95;;;;;;;32.07;39.45;94506.97;4985780;28;20042;-77
2021/07/13 13:58:51;;;;;;;7.38;6.88;;;;;;;31.97;39.46;94501.91;4985712;28;20026;-80
2021/07/13 14:01:18;;;;;;;7.15;6.30;;;;;;;32.04;37.74;94507.59;4984388;28;20121;-77
2021/07/13 14:03:43;;;;;;;7.43;6.22;;;;;;;31.94;38.11;94489.13;4985944;28;20074;-77
2021/07/13 14:06:09;;;;;;;7.68;6.90;;;;;;;32.07;38.55;94498.94;4986472;28;20231;-78
2021/07/13 14:08:35;;;;;;;6.80;6.30;;;;;;;32.07;38.64;94498.94;4985726;28;20100;-77
2021/07/13 14:11:01;;;;;;;7.50;7.00;;;;;;;32.07;38.90;94497.03;4985326;28;20038;-78
2021/07/13 14:13:27;;;;;;;6.88;6.28;;;;;;;31.98;38.05;94504.25;4984819;28;20022;-78
2021/07/13 14:15:55;;;;;;;7.07;6.50;;;;;;;32.14;38.93;94501.94;4984880;28;20396;-79
2021/07/13 14:18:21;;;;;;;7.30;6.47;;;;;;;31.93;36.75;94495.59;4986300;28;20027;-79
2021/07/13 14:20:47;;;;;;;6.05;5.65;;;;;;;32.25;37.51;94492.44;4982853;28;20031;-76
2021/07/13 14:23:12;;;;;;;7.20;6.50;;;;;;;32.19;37.26;94491.03;4965637;28;20428;-75
2021/07/13 14:25:38;;;;;;;6.63;6.18;;;;;;;32.01;37.22;94495.59;4965679;28;20082;-77
2021/07/13 14:28:04;;;;;;;6.32;5.82;;;;;;;31.98;37.44;94492.75;4966547;28;20023;-75
2021/07/13 14:30:29;;;;;;;7.05;6.55;;;;;;;32.23;38.50;94490.09;4966054;28;20031;-78
2021/07/13 14:32:55;;;;;;;7.05;6.50;;;;;;;32.27;37.92;94492.94;4966023;28;20397;-77
2021/07/13 14:35:20;;;;;;;7.45;6.75;;;;;;;32.23;37.18;94497.34;4967014;28;20050;-77
2021/07/13 14:37:46;;;;;;;7.65;7.05;;;;;;;32.17;37.61;94504.75;4969812;28;20027;-79
2021/07/13 14:40:12;;;;;;;6.30;5.88;;;;;;;32.08;37.46;94498.59;4970100;28;20018;-78
2021/07/13 14:42:37;;;;;;;6.63;6.18;;;;;;;32.10;36.94;94492.94;4968384;28;20053;-79
2021/07/13 14:45:04;;;;;;;7.22;6.72;;;;;;;32.28;37.81;94492.59;4969894;28;20026;-79
2021/07/13 14:47:31;;;;;;;6.97;6.50;;;;;;;32.18;37.72;94492.13;4952387;28;20118;-77
2021/07/13 14:49:57;;;;;;;6.78;6.38;;;;;;;32.32;37.60;94492.75;4968611;28;20463;-77
2021/07/13 14:52:22;;;;;;;7.25;6.75;;;;;;;32.09;37.18;94494.81;4982777;28;20030;-77
2021/07/13 14:54:48;;;;;;;7.30;6.80;;;;;;;32.15;37.55;94485.50;4988521;28;20558;-75
2021/07/13 14:57:13;;;;;;;8.57;6.80;;;;;;;32.24;37.82;94485.47;4987867;28;20692;-77
2021/07/13 14:59:39;;;;;;;7.15;6.65;;;;;;;32.08;36.82;94479.84;4985952;28;20207;-75
2021/07/13 15:02:04;;;;;;;5.95;5.60;;;;;;;31.85;37.69;94479.19;4989107;28;20038;-78
2021/07/13 15:04:30;;;;;;;7.72;7.03;;;;;;;31.86;37.68;94472.72;4988655;28;20401;-75
2021/07/13 15:06:55;;;;;;;8.13;6.25;;;;;;;31.85;38.15;94476.50;4988903;28;20109;-78
2021/07/13 15:09:21;;;;;;;6.78;6.28;;;;;;;31.84;37.99;94477.63;4987114;28;20033;-78
2021/07/13 15:11:47;;;;;;;6.72;6.32;;;;;;;31.75;37.95;94471.47;4989087;28;20093;-76
2021/07/13 15:14:13;;;;;;;7.15;6.50;;;;;;;31.72;38.17;94480.13;4987440;28;20451;-77
2021/07/13 15:16:39;;;;;;;7.50;6.70;;;;;;;31.65;38.59;94477.16;4989140;28;20484;-78
2021/07/13 15:19:04;;;;;;;7.03;6.60;;;;;;;31.68;38.44;94473.03;4988061;28;20310;-77
2021/07/13 15:21:29;;;;;;;6.85;6.15;;;;;;;31.65;38.33;94476.34;4988299;28;20140;-79
2021/07/13 15:23:55;;;;;;;6.13;5.72;;;;;;;31.59;38.62;94462.34;4988201;28;20523;-78
2021/07/13 15:26:20;;;;;;;7.00;6.35;;;;;;;31.41;39.31;94468.72;4988011;28;20061;-78
2021/07/13 15:28:46;;;;;;;7.13;6.63;;;;;;;31.54;39.26;94470.50;4985019;28;20031;-78
2021/07/13 15:31:11;;;;;;;6.78;6.28;;;;;;;31.45;39.59;94475.03;4950814;28;20062;-77
2021/07/13 15:33:37;;;;;;;6.93;6.28;;;;;;;31.38;40.22;94469.34;4969062;28;20487;-76
2021/07/13 15:36:03;;;;;;;6.93;6.30;;;;;;;31.41;40.96;94468.72;4968694;28;20031;-75
2021/07/13 15:38:28;;;;;;;7.55;7.05;;;;;;;31.20;40.94;94470.44;4968701;28;20027;-78
2021/07/13 15:40:55;;;;;;;7.38;6.70;;;;;;;31.16;40.99;94461.44;4970358;28;20018;-76
2021/07/13 15:43:21;;;;;;;7.10;6.50;;;;;;;31.14;41.82;94469.00;4986245;28;20070;-77
2021/07/13 15:45:47;;;;;;;7.38;6.82;;;;;;;31.11;40.49;94467.75;4988639;28;20022;-75
2021/07/13 15:48:12;;;;;;;7.10;6.50;;;;;;;31.06;41.04;94469.75;4987138;28;20025;-81
2021/07/13 15:50:38;;;;;;;7.47;6.78;;;;;;;30.96;42.02;94472.69;4987428;28;20121;-79
2021/07/13 15:53:04;;;;;;;8.38;7.60;;;;;;;30.85;43.14;94469.50;4985874;28;20408;-78
2021/07/13 15:55:30;;;;;;;12.70;6.65;;;;;;;30.87;42.91;94469.19;4986957;28;20056;-78
2021/07/13 15:57:55;;;;;;;7.13;6.50;;;;;;;30.73;42.88;94472.75;4987705;28;20567;-77
2021/07/13 16:00:21;;;;;;;7.45;6.95;;;;;;;30.62;42.63;94474.13;4987825;28;20086;-79
2021/07/13 16:02:46;;;;;;;7.80;7.20;;;;;;;30.61;42.29;94472.53;4986779;28;20472;-79
2021/07/13 16:05:12;;;;;;;7.43;6.95;;;;;;;30.61;42.76;94474.44;4973199;28;20031;-80
2021/07/13 16:07:38;;;;;;;7.28;6.68;;;;;;;30.58;43.79;94467.03;4967433;28;20039;-78
2021/07/13 16:10:08;;;;;;;8.02;7.25;;;;;;;30.47;43.30;94471.06;4966319;28;20467;-79
2021/07/13 16:12:34;;;;;;;9.15;6.88;;;;;;;30.40;43.09;94468.03;4967287;28;20046;-76
2021/07/13 16:15:00;;;;;;;7.30;6.75;;;;;;;30.38;42.44;94468.31;4967313;28;20054;-77
2021/07/13 16:17:25;;;;;;;7.80;7.20;;;;;;;30.31;43.40;94471.41;4968557;28;20027;-81
2021/07/13 16:19:52;;;;;;;7.97;6.68;;;;;;;30.27;43.73;94478.47;4968337;28;20531;-77
2021/07/13 16:22:20;;;;;;;7.63;7.07;;;;;;;30.12;43.35;94472.69;4970637;28;20038;-78
2021/07/13 16:24:46;;;;;;;6.97;6.57;;;;;;;30.11;44.37;94471.94;4967206;28;20472;-77
2021/07/13 16:27:12;;;;;;;6.80;6.40;;;;;;;30.05;44.57;94483.03;4967815;28;20031;-77
2021/07/13 16:29:38;;;;;;;7.22;6.72;;;;;;;29.95;44.57;94485.97;4968126;28;20054;-80
2021/07/13 16:32:03;;;;;;;8.13;7.45;;;;;;;29.79;45.63;94488.97;4968018;28;20070;-79
2021/07/13 16:34:29;;;;;;;7.47;6.78;;;;;;;29.70;45.39;94485.41;4967958;28;20030;-80
2021/07/13 16:36:54;;;;;;;7.18;6.68;;;;;;;29.74;44.19;94489.06;4969054;28;20069;-79
2021/07/13 16:39:20;;;;;;;7.30;6.70;;;;;;;29.55;44.91;94482.28;4967306;28;20720;-77
2021/07/13 16:41:45;;;;;;;7.30;6.70;;;;;;;29.53;44.86;94485.28;4968160;28;20039;-77